createdAt,value
2019-02-28T00:01:43.198Z,7.37
2019-02-28T00:04:19.100Z,7.41
2019-02-28T00:06:54.061Z,7.30
2019-02-28T00:09:28.837Z,7.35
2019-02-28T00:12:06.291Z,7.32
2019-02-28T00:14:41.347Z,7.49
2019-02-28T00:17:16.245Z,7.52
2019-02-28T00:19:51.124Z,7.44
2019-02-28T00:22:26.023Z,7.34
2019-02-28T00:25:01.197Z,7.31
2019-02-28T00:27:37.403Z,7.10
2019-02-28T00:30:12.407Z,7.08
2019-02-28T00:32:47.285Z,6.91
2019-02-28T00:35:22.561Z,6.79
2019-02-28T00:37:57.520Z,6.73
2019-02-28T00:40:32.683Z,6.68
2019-02-28T00:43:08.935Z,6.61
2019-02-28T00:45:43.805Z,6.64
2019-02-28T00:48:21.725Z,6.75
2019-02-28T00:50:55.180Z,6.72
2019-02-28T00:53:30.079Z,6.69
2019-02-28T00:56:04.845Z,6.63
2019-02-28T00:58:39.769Z,6.49
2019-02-28T01:01:14.539Z,6.52
2019-02-28T01:03:49.512Z,6.48
2019-02-28T01:06:24.273Z,6.52
2019-02-28T01:08:59.175Z,6.43
2019-02-28T01:11:34.411Z,6.62
2019-02-28T01:14:09.313Z,6.44
2019-02-28T01:16:44.224Z,6.36
2019-02-28T01:19:19.146Z,6.33
2019-02-28T01:21:55.387Z,6.24
2019-02-28T01:24:34.542Z,6.28
2019-02-28T01:27:09.545Z,6.21
2019-02-28T01:29:45.256Z,6.14
2019-02-28T01:32:20.063Z,6.02
2019-02-28T01:34:55.332Z,6.09
2019-02-28T01:37:30.245Z,6.08
2019-02-28T01:40:05.819Z,6.07
2019-02-28T01:42:40.719Z,6.25
2019-02-28T01:45:15.759Z,6.08
2019-02-28T01:47:51.789Z,5.96
2019-02-28T01:50:29.680Z,5.81
2019-02-28T01:53:03.806Z,5.91
2019-02-28T01:55:38.629Z,5.90
2019-02-28T01:58:16.591Z,5.96
2019-02-28T02:00:50.216Z,5.92
2019-02-28T02:03:41.696Z,5.77
2019-02-28T02:06:16.611Z,5.87
2019-02-28T02:08:52.460Z,5.76
2019-02-28T02:11:27.349Z,5.71
2019-02-28T02:14:04.116Z,5.72
2019-02-28T02:16:39.042Z,5.63
2019-02-28T02:19:17.482Z,5.78
2019-02-28T02:21:50.442Z,5.66
2019-02-28T02:24:27.879Z,5.73
2019-02-28T02:27:01.971Z,5.63
2019-02-28T02:29:37.164Z,5.57
2019-02-28T02:32:12.153Z,5.54
2019-02-28T02:34:47.727Z,5.52
2019-02-28T02:37:26.474Z,5.48
2019-02-28T02:39:59.286Z,5.64
2019-02-28T02:42:34.286Z,5.61
2019-02-28T02:45:10.655Z,5.61
2019-02-28T02:47:45.526Z,5.46
2019-02-28T02:50:22.151Z,5.45
2019-02-28T02:52:57.095Z,5.51
2019-02-28T02:55:31.972Z,5.52
2019-02-28T02:58:06.772Z,5.54
2019-02-28T03:00:41.630Z,5.46
2019-02-28T03:03:16.564Z,5.44
2019-02-28T03:05:51.448Z,5.42
2019-02-28T03:08:26.569Z,5.42
2019-02-28T03:11:01.494Z,5.35
2019-02-28T03:13:41.850Z,5.29
2019-02-28T03:16:13.008Z,5.17
2019-02-28T03:18:47.964Z,5.17
2019-02-28T03:21:22.897Z,5.20
2019-02-28T03:23:57.885Z,5.20
2019-02-28T03:26:32.927Z,5.10
2019-02-28T03:29:08.930Z,5.25
2019-02-28T03:31:54.541Z,5.19
2019-02-28T03:34:20.466Z,5.14
2019-02-28T03:36:57.578Z,5.19
2019-02-28T03:39:32.840Z,5.15
2019-02-28T03:42:07.635Z,5.25
2019-02-28T03:44:42.713Z,5.05
2019-02-28T03:47:22.668Z,5.03
2019-02-28T03:49:54.070Z,5.12
2019-02-28T03:52:29.107Z,5.15
2019-02-28T03:55:04.748Z,5.20
2019-02-28T03:57:39.627Z,5.29
2019-02-28T04:00:19.283Z,5.14
2019-02-28T04:02:58.719Z,5.24
2019-02-28T04:05:32.471Z,5.20
2019-02-28T04:08:07.402Z,5.13
2019-02-28T04:10:42.352Z,5.10
2019-02-28T04:13:19.167Z,5.04
2019-02-28T04:16:08.346Z,5.08
2019-02-28T04:18:44.192Z,5.12
2019-02-28T04:21:17.518Z,5.04
2019-02-28T04:23:55.829Z,5.04
2019-02-28T04:26:33.196Z,5.02
2019-02-28T04:29:10.546Z,4.89
2019-02-28T04:31:46.808Z,4.87
2019-02-28T04:34:21.669Z,4.93
2019-02-28T04:36:56.464Z,4.92
2019-02-28T04:39:31.328Z,4.97
2019-02-28T04:42:07.924Z,4.89
2019-02-28T04:44:42.880Z,4.93
2019-02-28T04:47:17.754Z,4.82
2019-02-28T04:49:53.530Z,4.72
2019-02-28T04:52:30.133Z,4.73
2019-02-28T04:55:05.151Z,4.84
2019-02-28T04:57:39.957Z,4.78
2019-02-28T05:00:14.930Z,4.64
2019-02-28T05:02:53.719Z,4.55
2019-02-28T05:05:26.300Z,4.62
2019-02-28T05:08:04.990Z,4.65
2019-02-28T05:10:38.280Z,4.59
2019-02-28T05:13:14.366Z,4.59
2019-02-28T05:15:49.956Z,4.58
2019-02-28T05:18:27.600Z,4.56
2019-02-28T05:21:01.690Z,4.37
2019-02-28T05:23:41.608Z,4.38
2019-02-28T05:26:16.396Z,4.44
2019-02-28T05:28:52.170Z,4.44
2019-02-28T05:31:28.054Z,4.32
2019-02-28T05:34:03.032Z,4.41
2019-02-28T05:36:38.805Z,4.37
2019-02-28T05:39:13.804Z,4.20
2019-02-28T05:41:49.459Z,4.29
2019-02-28T05:44:24.990Z,4.34
2019-02-28T05:46:59.882Z,4.28
2019-02-28T05:49:34.838Z,4.28
2019-02-28T05:52:09.620Z,4.28
2019-02-28T05:54:47.241Z,4.19
2019-02-28T05:57:21.169Z,4.27
2019-02-28T06:00:01.359Z,4.22
2019-02-28T06:02:32.816Z,4.43
2019-02-28T06:05:08.421Z,4.31
2019-02-28T06:07:44.700Z,4.34
2019-02-28T06:10:23.519Z,4.31
2019-02-28T06:12:56.184Z,4.31
2019-02-28T06:15:31.096Z,4.31
2019-02-28T06:18:05.990Z,4.27
2019-02-28T06:20:40.945Z,4.19
2019-02-28T06:23:15.857Z,4.13
2019-02-28T06:25:50.761Z,4.15
2019-02-28T06:28:27.637Z,4.08
2019-02-28T06:31:02.256Z,4.16
2019-02-28T06:33:37.208Z,4.06
2019-02-28T06:36:12.110Z,4.03
2019-02-28T06:38:46.998Z,4.03
2019-02-28T06:41:21.944Z,4.21
2019-02-28T06:43:56.850Z,4.14
2019-02-28T06:46:31.849Z,4.22
2019-02-28T06:49:07.211Z,4.16
2019-02-28T06:51:42.609Z,4.21
2019-02-28T06:54:17.578Z,4.25
2019-02-28T06:56:54.109Z,4.29
2019-02-28T06:59:30.246Z,4.27
2019-02-28T07:02:05.354Z,4.29
2019-02-28T07:04:45.458Z,4.32
2019-02-28T07:07:26.159Z,4.42
2019-02-28T07:10:02.470Z,4.43
2019-02-28T07:12:42.872Z,4.39
2019-02-28T07:15:23.765Z,4.46
2019-02-28T07:17:54.688Z,4.50
2019-02-28T07:20:29.800Z,4.51
2019-02-28T07:23:04.908Z,4.54
2019-02-28T07:25:44.223Z,4.45
2019-02-28T07:28:19.654Z,4.54
2019-02-28T07:30:54.478Z,4.65
2019-02-28T07:33:31.880Z,4.79
2019-02-28T07:36:09.571Z,4.86
2019-02-28T07:38:43.803Z,4.90
2019-02-28T07:41:20.262Z,4.97
2019-02-28T07:43:55.257Z,4.93
2019-02-28T07:46:33.550Z,5.09
2019-02-28T07:49:10.018Z,5.26
2019-02-28T07:51:45.970Z,5.38
2019-02-28T07:54:20.916Z,5.60
2019-02-28T07:56:58.406Z,5.60
2019-02-28T07:59:40.785Z,5.58
2019-02-28T08:02:15.792Z,5.65
2019-02-28T08:04:54.478Z,5.46
2019-02-28T08:07:36.294Z,5.40
2019-02-28T08:10:18.691Z,5.59
2019-02-28T08:12:54.562Z,5.60
2019-02-28T08:15:30.710Z,5.75
2019-02-28T08:18:08.220Z,5.77
2019-02-28T08:20:43.256Z,5.95
2019-02-28T08:23:18.340Z,6.07
2019-02-28T08:25:53.248Z,6.34
2019-02-28T08:28:35.892Z,6.39
2019-02-28T08:31:07.824Z,6.50
2019-02-28T08:33:42.841Z,6.66
2019-02-28T08:36:17.830Z,6.65
2019-02-28T08:38:53.290Z,6.73
2019-02-28T08:41:28.319Z,6.83
2019-02-28T08:44:03.290Z,6.99
2019-02-28T08:46:38.262Z,6.91
2019-02-28T08:49:13.185Z,6.88
2019-02-28T08:51:48.110Z,7.00
2019-02-28T08:54:27.228Z,6.99
2019-02-28T08:56:59.784Z,7.04
2019-02-28T08:59:36.071Z,7.17
2019-02-28T09:02:11.042Z,7.16
2019-02-28T09:04:47.913Z,7.25
2019-02-28T09:07:23.371Z,7.44
2019-02-28T09:09:58.410Z,7.55
2019-02-28T09:12:34.122Z,7.53
2019-02-28T09:15:10.689Z,7.58
2019-02-28T09:17:46.958Z,7.50
2019-02-28T09:20:22.919Z,7.28
2019-02-28T09:23:01.657Z,7.18
2019-02-28T09:25:34.414Z,7.45
2019-02-28T09:28:13.111Z,7.58
2019-02-28T09:30:47.121Z,7.71
2019-02-28T09:33:23.415Z,7.46
2019-02-28T09:35:58.644Z,7.48
2019-02-28T09:38:36.087Z,7.50
2019-02-28T09:41:12.799Z,7.71
2019-02-28T09:43:47.678Z,7.27
2019-02-28T09:46:24.123Z,7.13
2019-02-28T09:48:59.987Z,7.28
2019-02-28T09:51:35.031Z,7.22
2019-02-28T09:54:35.571Z,7.44
2019-02-28T09:57:10.493Z,7.04
2019-02-28T09:59:45.347Z,7.03
2019-02-28T10:02:20.643Z,7.37
2019-02-28T10:04:57.314Z,7.36
2019-02-28T10:07:33.104Z,7.52
2019-02-28T10:10:11.309Z,7.77
2019-02-28T10:12:46.820Z,7.85
2019-02-28T10:15:22.737Z,7.65
2019-02-28T10:18:00.738Z,7.58
2019-02-28T10:20:34.414Z,7.75
2019-02-28T10:23:09.318Z,7.69
2019-02-28T10:25:44.221Z,7.61
2019-02-28T10:28:19.500Z,7.39
2019-02-28T10:30:54.404Z,7.15
2019-02-28T10:33:29.762Z,7.27
2019-02-28T10:36:05.637Z,7.20
2019-02-28T10:38:40.647Z,7.28
2019-02-28T10:41:15.533Z,7.50
2019-02-28T10:43:54.787Z,7.44
2019-02-28T10:46:27.115Z,7.34
2019-02-28T10:49:01.989Z,7.58
2019-02-28T10:51:36.927Z,7.61
2019-02-28T10:54:14.584Z,7.65
2019-02-28T10:56:48.479Z,7.86
2019-02-28T10:59:24.392Z,7.80
2019-02-28T11:01:59.964Z,8.00
2019-02-28T11:04:36.127Z,8.00
2019-02-28T11:07:11.219Z,7.90
2019-02-28T11:09:46.167Z,7.90
2019-02-28T11:12:23.715Z,7.75
2019-02-28T11:14:58.025Z,7.72
2019-02-28T11:17:34.305Z,7.52
2019-02-28T11:20:21.845Z,7.58
2019-02-28T11:22:48.497Z,7.68
2019-02-28T11:25:26.128Z,8.02
2019-02-28T11:28:01.186Z,7.75
2019-02-28T11:30:36.760Z,8.08
2019-02-28T11:33:11.924Z,8.34
2019-02-28T11:35:48.055Z,8.27
2019-02-28T11:38:22.965Z,8.00
2019-02-28T11:40:57.965Z,7.93
2019-02-28T11:43:38.361Z,7.94
2019-02-28T11:46:12.509Z,8.01
2019-02-28T11:48:47.383Z,8.08
2019-02-28T11:51:22.407Z,8.08
2019-02-28T11:53:58.073Z,8.12
2019-02-28T11:56:34.612Z,8.04
2019-02-28T11:59:10.391Z,7.86
2019-02-28T12:01:47.504Z,7.91
2019-02-28T12:04:22.153Z,7.95
2019-02-28T12:06:57.472Z,7.75
2019-02-28T12:09:34.146Z,7.66
2019-02-28T12:12:10.439Z,7.72
2019-02-28T12:14:47.958Z,7.72
2019-02-28T12:17:25.574Z,7.87
2019-02-28T12:20:00.633Z,7.93
2019-02-28T12:22:36.939Z,7.97
2019-02-28T12:25:14.236Z,8.04
2019-02-28T12:27:49.255Z,8.11
2019-02-28T12:30:26.799Z,7.89
2019-02-28T12:33:01.794Z,7.81
2019-02-28T12:35:40.368Z,7.71
2019-02-28T12:38:13.339Z,7.85
2019-02-28T12:40:49.496Z,7.76
2019-02-28T12:43:24.693Z,8.04
2019-02-28T12:46:00.153Z,7.97
2019-02-28T12:48:37.441Z,8.13
2019-02-28T12:51:12.875Z,7.91
2019-02-28T12:53:47.910Z,7.79
2019-02-28T12:56:22.867Z,7.81
2019-02-28T12:58:57.705Z,7.94
2019-02-28T13:01:34.367Z,8.11
2019-02-28T13:04:09.611Z,8.25
2019-02-28T13:06:44.510Z,8.38
2019-02-28T13:09:20.297Z,8.28
2019-02-28T13:11:55.117Z,8.44
2019-02-28T13:14:30.089Z,8.65
2019-02-28T13:17:05.123Z,8.84
2019-02-28T13:19:41.468Z,8.86
2019-02-28T13:22:18.901Z,8.76
2019-02-28T13:24:53.006Z,9.08
2019-02-28T13:27:28.008Z,9.19
2019-02-28T13:30:05.514Z,9.07
2019-02-28T13:32:40.170Z,9.27
2019-02-28T13:35:18.006Z,9.36
2019-02-28T13:37:53.078Z,9.05
2019-02-28T13:40:28.138Z,9.22
2019-02-28T13:43:06.025Z,9.25
2019-02-28T13:45:40.980Z,9.02
2019-02-28T13:48:25.430Z,9.00
2019-02-28T13:50:52.545Z,9.10
2019-02-28T13:53:30.586Z,9.08
2019-02-28T13:56:05.027Z,9.16
2019-02-28T13:58:40.114Z,9.13
2019-02-28T14:01:19.452Z,9.13
2019-02-28T14:03:51.973Z,9.08
2019-02-28T14:06:26.944Z,9.21
2019-02-28T14:09:01.848Z,9.33
2019-02-28T14:11:41.768Z,9.42
2019-02-28T14:14:17.393Z,9.47
2019-02-28T14:16:52.398Z,9.29
2019-02-28T14:19:27.274Z,9.39
2019-02-28T14:22:03.033Z,9.23
2019-02-28T14:24:37.995Z,9.37
2019-02-28T14:27:12.982Z,9.29
2019-02-28T14:29:49.045Z,9.28
2019-02-28T14:32:24.032Z,9.15
2019-02-28T14:34:59.967Z,9.14
2019-02-28T14:37:35.740Z,9.19
2019-02-28T14:40:14.649Z,9.33
2019-02-28T14:42:50.068Z,9.27
2019-02-28T14:45:25.853Z,9.32
2019-02-28T14:48:03.913Z,8.94
2019-02-28T14:50:37.367Z,8.88
2019-02-28T14:53:14.424Z,8.68
2019-02-28T14:55:48.909Z,8.90
2019-02-28T14:58:23.807Z,9.03
2019-02-28T15:00:58.796Z,9.33
2019-02-28T15:03:36.850Z,9.14
2019-02-28T15:06:11.854Z,9.43
2019-02-28T15:08:47.416Z,9.42
2019-02-28T15:11:23.787Z,9.13
2019-02-28T15:13:59.588Z,9.11
2019-02-28T15:16:35.327Z,9.22
2019-02-28T15:19:10.575Z,9.31
2019-02-28T15:21:45.368Z,9.42
2019-02-28T15:24:20.295Z,9.52
2019-02-28T15:26:55.219Z,9.68
2019-02-28T15:29:30.165Z,9.86
2019-02-28T15:32:05.177Z,9.51
2019-02-28T15:34:42.933Z,9.62
2019-02-28T15:37:17.847Z,9.45
2019-02-28T15:39:52.801Z,9.35
2019-02-28T15:42:27.713Z,9.30
2019-02-28T15:45:03.996Z,9.40
2019-02-28T15:47:40.123Z,9.39
2019-02-28T15:50:16.305Z,9.33
2019-02-28T15:52:55.825Z,9.32
2019-02-28T15:55:30.903Z,9.24
2019-02-28T15:58:06.968Z,9.09
2019-02-28T16:00:42.483Z,9.02
2019-02-28T16:03:18.436Z,9.14
2019-02-28T16:05:56.222Z,9.26
2019-02-28T16:08:31.293Z,9.22
2019-02-28T16:11:07.177Z,9.17
2019-02-28T16:13:42.182Z,8.99
2019-02-28T16:16:17.103Z,9.13
2019-02-28T16:18:52.029Z,9.05
2019-02-28T16:21:27.771Z,9.00
2019-02-28T16:24:05.094Z,9.02
2019-02-28T16:26:39.451Z,8.87
2019-02-28T16:29:15.241Z,8.92
2019-02-28T16:31:52.009Z,8.75
2019-02-28T16:34:26.884Z,8.66
2019-02-28T16:37:03.620Z,8.60
2019-02-28T16:39:39.773Z,8.46
2019-02-28T16:42:14.640Z,8.50
2019-02-28T16:44:49.620Z,8.44
2019-02-28T16:47:25.221Z,8.27
2019-02-28T16:50:00.367Z,8.23
2019-02-28T16:52:37.360Z,8.24
2019-02-28T16:55:12.154Z,8.09
2019-02-28T16:57:48.011Z,7.99
2019-02-28T17:00:23.189Z,7.96
2019-02-28T17:03:17.104Z,7.84
2019-02-28T17:05:58.448Z,7.68
2019-02-28T17:08:36.659Z,7.67
2019-02-28T17:11:14.684Z,7.65
2019-02-28T17:13:55.721Z,7.59
2019-02-28T17:16:37.061Z,7.45
2019-02-28T17:19:11.751Z,7.41
2019-02-28T17:21:48.628Z,7.24
2019-02-28T17:24:38.012Z,7.27
2019-02-28T17:27:33.065Z,7.27
2019-02-28T17:30:22.307Z,7.22
2019-02-28T17:32:58.648Z,7.30
2019-02-28T17:35:34.929Z,7.29
2019-02-28T17:38:09.973Z,7.23
2019-02-28T17:40:46.400Z,7.19
2019-02-28T17:43:24.417Z,7.24
2019-02-28T17:45:58.725Z,7.42
2019-02-28T17:49:55.947Z,7.51
2019-02-28T17:52:46.780Z,7.46
2019-02-28T17:56:26.627Z,7.60
2019-02-28T18:00:17.041Z,7.58
2019-02-28T18:03:44.981Z,7.65
2019-02-28T18:07:29.611Z,7.71
2019-02-28T18:11:05.786Z,7.73
2019-02-28T18:14:34.146Z,7.81
2019-02-28T18:18:08.894Z,7.81
2019-02-28T18:21:55.928Z,7.86
2019-02-28T18:25:51.972Z,7.90
2019-02-28T18:28:58.012Z,7.97
2019-02-28T18:31:32.529Z,7.90
2019-02-28T18:34:16.963Z,8.01
2019-02-28T18:36:52.535Z,8.02
2019-02-28T18:39:28.395Z,7.95
2019-02-28T18:42:04.134Z,7.91
2019-02-28T18:44:41.236Z,7.93
2019-02-28T18:47:17.024Z,8.05
2019-02-28T18:49:52.002Z,7.98
2019-02-28T18:52:27.120Z,7.81
2019-02-28T18:55:06.155Z,7.94
2019-02-28T18:57:38.781Z,7.96
2019-02-28T19:00:17.454Z,7.92
2019-02-28T19:02:52.737Z,7.89
2019-02-28T19:05:38.020Z,7.90
2019-02-28T19:08:13.002Z,7.90
2019-02-28T19:10:48.060Z,7.89
2019-02-28T19:13:23.022Z,7.88
2019-02-28T19:15:58.021Z,7.80
2019-02-28T19:18:33.623Z,7.84
2019-02-28T19:21:08.613Z,7.84
2019-02-28T19:23:43.647Z,7.82
2019-02-28T19:26:19.447Z,7.63
2019-02-28T19:28:54.746Z,7.50
2019-02-28T19:31:29.768Z,7.48
2019-02-28T19:34:04.742Z,7.55
2019-02-28T19:36:39.688Z,7.63
2019-02-28T19:39:14.654Z,7.67
2019-02-28T19:41:49.598Z,7.68
2019-02-28T19:44:27.561Z,7.70
2019-02-28T19:47:03.994Z,7.72
2019-02-28T19:49:39.031Z,7.80
2019-02-28T19:52:14.320Z,7.79
2019-02-28T19:54:50.166Z,7.78
2019-02-28T19:57:26.024Z,7.80
2019-02-28T20:00:01.133Z,7.82
2019-02-28T20:02:37.523Z,7.85
2019-02-28T20:05:13.224Z,7.84
2019-02-28T20:07:48.188Z,7.81
2019-02-28T20:10:23.298Z,7.82
2019-02-28T20:12:58.808Z,7.84
2019-02-28T20:18:32.396Z,7.82
2019-02-28T20:21:07.495Z,7.84
2019-02-28T20:23:42.536Z,7.82
2019-02-28T20:26:18.566Z,7.86
2019-02-28T20:28:53.434Z,7.91
2019-02-28T20:31:28.422Z,7.86
2019-02-28T20:34:03.291Z,7.86
2019-02-28T20:36:39.746Z,7.87
2019-02-28T20:39:15.294Z,7.84
2019-02-28T20:41:50.295Z,7.89
2019-02-28T20:44:25.831Z,7.93
2019-02-28T20:47:00.790Z,7.91
2019-02-28T20:49:35.761Z,7.84
2019-02-28T20:52:11.525Z,7.97
2019-02-28T20:54:46.415Z,7.82
2019-02-28T20:57:21.408Z,7.72
2019-02-28T20:59:56.394Z,7.56
2019-02-28T21:02:31.326Z,7.60
2019-02-28T21:05:07.575Z,7.68
2019-02-28T21:07:42.742Z,7.64
2019-02-28T21:10:18.396Z,7.67
2019-02-28T21:12:53.397Z,7.82
2019-02-28T21:15:29.283Z,7.91
2019-02-28T21:18:04.270Z,7.96
2019-02-28T21:20:42.355Z,8.02
2019-02-28T21:23:19.606Z,8.03
2019-02-28T21:25:57.223Z,8.07
2019-02-28T21:28:32.598Z,8.08
2019-02-28T21:31:07.563Z,8.09
2019-02-28T21:33:42.672Z,8.12
2019-02-28T21:36:17.593Z,8.16
2019-02-28T21:38:52.571Z,8.17
2019-02-28T21:41:27.537Z,8.19
2019-02-28T21:44:03.089Z,8.18
2019-02-28T21:46:39.153Z,8.19
2019-02-28T21:49:14.202Z,8.20
2019-02-28T21:51:49.186Z,8.22
2019-02-28T21:54:26.309Z,8.23
2019-02-28T21:57:01.380Z,8.20
2019-02-28T21:59:37.835Z,8.24
2019-02-28T22:02:12.718Z,8.25
2019-02-28T22:04:47.743Z,8.30
2019-02-28T22:07:22.701Z,8.32
2019-02-28T22:09:57.706Z,8.32
2019-02-28T22:12:33.468Z,8.33
2019-02-28T22:15:11.223Z,8.25
2019-02-28T22:17:46.292Z,8.29
2019-02-28T22:20:21.197Z,8.30
2019-02-28T22:22:56.102Z,8.32
2019-02-28T22:25:30.927Z,8.34
2019-02-28T22:28:05.811Z,8.36
2019-02-28T22:31:02.847Z,8.39
2019-02-28T22:33:56.776Z,8.41
2019-02-28T22:36:35.995Z,8.45
2019-02-28T22:39:11.977Z,8.38
2019-02-28T22:41:46.861Z,8.40
2019-02-28T22:44:21.758Z,8.35
2019-02-28T22:46:57.244Z,8.38
2019-02-28T22:49:33.697Z,8.42
2019-02-28T22:52:08.510Z,8.43
2019-02-28T22:54:43.418Z,8.44
2019-02-28T22:57:18.354Z,8.41
2019-02-28T22:59:53.263Z,8.44
2019-02-28T23:02:30.731Z,8.47
2019-02-28T23:05:05.832Z,8.44
2019-02-28T23:07:40.787Z,8.45
2019-02-28T23:10:15.754Z,8.46
2019-02-28T23:12:50.688Z,8.47
2019-02-28T23:15:25.541Z,8.44
2019-02-28T23:18:00.507Z,8.39
2019-02-28T23:20:37.245Z,8.40
2019-02-28T23:23:13.295Z,8.43
2019-02-28T23:25:48.239Z,8.41
2019-02-28T23:28:32.887Z,8.42
2019-02-28T23:32:12.325Z,8.42
2019-02-28T23:34:52.032Z,8.43
2019-02-28T23:37:26.945Z,8.43
2019-02-28T23:40:02.066Z,8.43
2019-02-28T23:42:38.965Z,8.48
2019-02-28T23:45:13.859Z,8.47
2019-02-28T23:47:48.743Z,8.43
2019-02-28T23:50:23.619Z,8.45
2019-02-28T23:52:58.462Z,8.48
2019-02-28T23:55:33.505Z,8.48
2019-02-28T23:58:08.467Z,8.47
